sensor_id;sensor_type;location;lat;lon;timestamp;P1;durP1;ratioP1;P2;durP2;ratioP2
69594;SDS011;56800;52.142;5.364;2023-02-18T00:00:25;45.42;;;18.88;;
69594;SDS011;56800;52.142;5.364;2023-02-18T00:02:53;48.63;;;19.35;;
69594;SDS011;56800;52.142;5.364;2023-02-18T00:05:21;57.50;;;20.00;;
69594;SDS011;56800;52.142;5.364;2023-02-18T00:07:48;51.80;;;19.53;;
69594;SDS011;56800;52.142;5.364;2023-02-18T00:10:15;52.40;;;19.55;;
69594;SDS011;56800;52.142;5.364;2023-02-18T00:12:42;55.22;;;21.45;;
69594;SDS011;56800;52.142;5.364;2023-02-18T00:15:08;56.78;;;21.63;;
69594;SDS011;56800;52.142;5.364;2023-02-18T00:17:35;57.40;;;21.30;;
69594;SDS011;56800;52.142;5.364;2023-02-18T00:20:03;57.90;;;23.77;;
69594;SDS011;56800;52.142;5.364;2023-02-18T00:22:31;62.20;;;22.20;;
69594;SDS011;56800;52.142;5.364;2023-02-18T00:24:58;55.30;;;22.98;;
69594;SDS011;56800;52.142;5.364;2023-02-18T00:27:25;60.72;;;25.05;;
69594;SDS011;56800;52.142;5.364;2023-02-18T00:29:51;63.33;;;23.92;;
69594;SDS011;56800;52.142;5.364;2023-02-18T00:32:18;68.63;;;24.87;;
69594;SDS011;56800;52.142;5.364;2023-02-18T00:34:44;79.63;;;26.77;;
69594;SDS011;56800;52.142;5.364;2023-02-18T00:37:11;69.85;;;26.38;;
69594;SDS011;56800;52.142;5.364;2023-02-18T00:39:38;68.18;;;26.55;;
69594;SDS011;56800;52.142;5.364;2023-02-18T00:42:04;71.95;;;25.92;;
69594;SDS011;56800;52.142;5.364;2023-02-18T00:44:31;76.03;;;28.07;;
69594;SDS011;56800;52.142;5.364;2023-02-18T00:46:58;66.53;;;27.05;;
69594;SDS011;56800;52.142;5.364;2023-02-18T00:49:24;72.57;;;28.50;;
69594;SDS011;56800;52.142;5.364;2023-02-18T00:51:51;77.50;;;28.42;;
69594;SDS011;56800;52.142;5.364;2023-02-18T00:54:18;73.65;;;27.95;;
69594;SDS011;56800;52.142;5.364;2023-02-18T00:56:45;77.50;;;28.33;;
69594;SDS011;56800;52.142;5.364;2023-02-18T00:59:11;71.35;;;26.45;;
69594;SDS011;56800;52.142;5.364;2023-02-18T01:01:38;73.47;;;25.88;;
69594;SDS011;56800;52.142;5.364;2023-02-18T01:04:05;74.85;;;27.48;;
69594;SDS011;56800;52.142;5.364;2023-02-18T01:06:32;81.82;;;27.40;;
69594;SDS011;56800;52.142;5.364;2023-02-18T01:08:59;82.73;;;26.93;;
69594;SDS011;56800;52.142;5.364;2023-02-18T01:11:25;77.43;;;26.52;;
69594;SDS011;56800;52.142;5.364;2023-02-18T01:13:52;83.30;;;25.90;;
69594;SDS011;56800;52.142;5.364;2023-02-18T01:16:19;87.82;;;26.80;;
69594;SDS011;56800;52.142;5.364;2023-02-18T01:18:45;73.40;;;25.48;;
69594;SDS011;56800;52.142;5.364;2023-02-18T01:21:12;79.77;;;24.63;;
69594;SDS011;56800;52.142;5.364;2023-02-18T01:23:40;64.18;;;22.92;;
69594;SDS011;56800;52.142;5.364;2023-02-18T01:26:07;77.28;;;24.38;;
69594;SDS011;56800;52.142;5.364;2023-02-18T01:28:35;71.22;;;22.90;;
69594;SDS011;56800;52.142;5.364;2023-02-18T01:31:03;70.00;;;22.50;;
69594;SDS011;56800;52.142;5.364;2023-02-18T01:33:32;73.07;;;22.33;;
69594;SDS011;56800;52.142;5.364;2023-02-18T01:35:59;66.47;;;23.15;;
69594;SDS011;56800;52.142;5.364;2023-02-18T01:38:26;55.42;;;20.98;;
69594;SDS011;56800;52.142;5.364;2023-02-18T01:40:53;63.55;;;21.23;;
69594;SDS011;56800;52.142;5.364;2023-02-18T01:43:20;53.67;;;20.13;;
69594;SDS011;56800;52.142;5.364;2023-02-18T01:45:55;55.97;;;20.17;;
69594;SDS011;56800;52.142;5.364;2023-02-18T01:48:30;52.28;;;19.67;;
69594;SDS011;56800;52.142;5.364;2023-02-18T01:51:18;53.83;;;19.17;;
69594;SDS011;56800;52.142;5.364;2023-02-18T01:53:53;72.47;;;20.20;;
69594;SDS011;56800;52.142;5.364;2023-02-18T01:56:36;62.83;;;20.17;;
69594;SDS011;56800;52.142;5.364;2023-02-18T01:59:14;46.80;;;18.67;;
69594;SDS011;56800;52.142;5.364;2023-02-18T02:01:46;63.55;;;20.05;;
69594;SDS011;56800;52.142;5.364;2023-02-18T02:04:13;68.50;;;21.58;;
69594;SDS011;56800;52.142;5.364;2023-02-18T02:06:40;51.88;;;18.55;;
69594;SDS011;56800;52.142;5.364;2023-02-18T02:09:09;59.10;;;19.63;;
69594;SDS011;56800;52.142;5.364;2023-02-18T02:11:40;57.50;;;20.70;;
69594;SDS011;56800;52.142;5.364;2023-02-18T02:15:07;62.92;;;19.92;;
69594;SDS011;56800;52.142;5.364;2023-02-18T02:17:25;115.70;;;21.00;;
69594;SDS011;56800;52.142;5.364;2023-02-18T02:39:39;75.03;;;21.77;;
69594;SDS011;56800;52.142;5.364;2023-02-18T02:47:50;131.35;;;24.40;;
69594;SDS011;56800;52.142;5.364;2023-02-18T02:50:27;81.10;;;23.38;;
69594;SDS011;56800;52.142;5.364;2023-02-18T02:53:09;95.00;;;22.97;;
69594;SDS011;56800;52.142;5.364;2023-02-18T02:55:42;82.82;;;22.85;;
69594;SDS011;56800;52.142;5.364;2023-02-18T02:58:09;99.05;;;22.73;;
69594;SDS011;56800;52.142;5.364;2023-02-18T03:03:33;93.60;;;22.20;;
69594;SDS011;56800;52.142;5.364;2023-02-18T03:09:03;87.75;;;22.65;;
69594;SDS011;56800;52.142;5.364;2023-02-18T03:12:02;74.72;;;21.65;;
69594;SDS011;56800;52.142;5.364;2023-02-18T03:14:56;72.32;;;21.75;;
69594;SDS011;56800;52.142;5.364;2023-02-18T03:17:29;83.80;;;22.95;;
69594;SDS011;56800;52.142;5.364;2023-02-18T03:20:06;104.30;;;22.30;;
69594;SDS011;56800;52.142;5.364;2023-02-18T03:22:38;114.78;;;22.30;;
69594;SDS011;56800;52.142;5.364;2023-02-18T03:25:10;84.47;;;21.90;;
69594;SDS011;56800;52.142;5.364;2023-02-18T03:27:51;67.82;;;20.83;;
69594;SDS011;56800;52.142;5.364;2023-02-18T03:33:03;90.93;;;22.43;;
69594;SDS011;56800;52.142;5.364;2023-02-18T03:35:32;75.18;;;20.13;;
69594;SDS011;56800;52.142;5.364;2023-02-18T03:38:09;67.45;;;20.67;;
69594;SDS011;56800;52.142;5.364;2023-02-18T03:40:46;56.72;;;18.65;;
69594;SDS011;56800;52.142;5.364;2023-02-18T03:43:13;60.88;;;17.83;;
69594;SDS011;56800;52.142;5.364;2023-02-18T03:45:39;51.63;;;16.87;;
69594;SDS011;56800;52.142;5.364;2023-02-18T03:48:06;53.30;;;16.40;;
69594;SDS011;56800;52.142;5.364;2023-02-18T03:50:33;46.47;;;15.20;;
69594;SDS011;56800;52.142;5.364;2023-02-18T03:52:59;41.35;;;14.43;;
69594;SDS011;56800;52.142;5.364;2023-02-18T03:55:26;36.20;;;13.02;;
69594;SDS011;56800;52.142;5.364;2023-02-18T03:57:53;32.47;;;11.23;;
69594;SDS011;56800;52.142;5.364;2023-02-18T04:00:20;32.72;;;11.10;;
69594;SDS011;56800;52.142;5.364;2023-02-18T04:02:46;24.50;;;9.73;;
69594;SDS011;56800;52.142;5.364;2023-02-18T04:05:13;24.48;;;9.00;;
69594;SDS011;56800;52.142;5.364;2023-02-18T04:07:40;19.77;;;7.68;;
69594;SDS011;56800;52.142;5.364;2023-02-18T04:10:07;21.30;;;7.93;;
69594;SDS011;56800;52.142;5.364;2023-02-18T04:12:33;17.73;;;6.88;;
69594;SDS011;56800;52.142;5.364;2023-02-18T04:15:00;18.98;;;7.38;;
69594;SDS011;56800;52.142;5.364;2023-02-18T04:17:27;15.57;;;6.40;;
69594;SDS011;56800;52.142;5.364;2023-02-18T04:19:53;15.00;;;6.40;;
69594;SDS011;56800;52.142;5.364;2023-02-18T04:22:20;14.53;;;6.37;;
69594;SDS011;56800;52.142;5.364;2023-02-18T04:24:47;15.98;;;5.70;;
69594;SDS011;56800;52.142;5.364;2023-02-18T04:27:13;12.73;;;5.85;;
69594;SDS011;56800;52.142;5.364;2023-02-18T04:29:40;11.98;;;5.40;;
69594;SDS011;56800;52.142;5.364;2023-02-18T04:32:07;12.10;;;5.78;;
69594;SDS011;56800;52.142;5.364;2023-02-18T04:34:34;11.23;;;5.53;;
69594;SDS011;56800;52.142;5.364;2023-02-18T04:37:00;8.90;;;5.38;;
69594;SDS011;56800;52.142;5.364;2023-02-18T04:39:27;12.20;;;6.40;;
69594;SDS011;56800;52.142;5.364;2023-02-18T04:41:54;11.93;;;6.38;;
69594;SDS011;56800;52.142;5.364;2023-02-18T04:44:20;12.27;;;6.93;;
69594;SDS011;56800;52.142;5.364;2023-02-18T04:46:47;12.47;;;6.57;;
69594;SDS011;56800;52.142;5.364;2023-02-18T04:49:13;14.48;;;6.65;;
69594;SDS011;56800;52.142;5.364;2023-02-18T04:51:40;11.40;;;7.07;;
69594;SDS011;56800;52.142;5.364;2023-02-18T04:54:07;13.93;;;7.00;;
69594;SDS011;56800;52.142;5.364;2023-02-18T04:56:34;15.80;;;6.72;;
69594;SDS011;56800;52.142;5.364;2023-02-18T04:59:00;16.90;;;7.53;;
69594;SDS011;56800;52.142;5.364;2023-02-18T05:01:27;10.73;;;6.38;;
69594;SDS011;56800;52.142;5.364;2023-02-18T05:03:54;12.38;;;6.70;;
69594;SDS011;56800;52.142;5.364;2023-02-18T05:06:20;13.00;;;6.65;;
69594;SDS011;56800;52.142;5.364;2023-02-18T05:08:47;11.88;;;6.80;;
69594;SDS011;56800;52.142;5.364;2023-02-18T05:11:14;15.27;;;7.83;;
69594;SDS011;56800;52.142;5.364;2023-02-18T05:13:41;14.13;;;7.70;;
69594;SDS011;56800;52.142;5.364;2023-02-18T05:16:08;14.75;;;8.88;;
69594;SDS011;56800;52.142;5.364;2023-02-18T05:18:35;12.98;;;8.93;;
69594;SDS011;56800;52.142;5.364;2023-02-18T05:21:02;14.70;;;9.63;;
69594;SDS011;56800;52.142;5.364;2023-02-18T05:23:28;16.37;;;8.50;;
69594;SDS011;56800;52.142;5.364;2023-02-18T05:25:55;14.93;;;8.15;;
69594;SDS011;56800;52.142;5.364;2023-02-18T05:28:22;15.50;;;9.23;;
69594;SDS011;56800;52.142;5.364;2023-02-18T05:30:48;14.48;;;9.57;;
69594;SDS011;56800;52.142;5.364;2023-02-18T05:33:15;11.43;;;7.55;;
69594;SDS011;56800;52.142;5.364;2023-02-18T05:35:42;13.60;;;8.60;;
69594;SDS011;56800;52.142;5.364;2023-02-18T05:38:08;15.27;;;9.05;;
69594;SDS011;56800;52.142;5.364;2023-02-18T05:40:36;17.02;;;9.95;;
69594;SDS011;56800;52.142;5.364;2023-02-18T05:43:06;19.25;;;11.00;;
69594;SDS011;56800;52.142;5.364;2023-02-18T05:45:33;18.92;;;11.98;;
69594;SDS011;56800;52.142;5.364;2023-02-18T05:48:00;18.87;;;11.10;;
69594;SDS011;56800;52.142;5.364;2023-02-18T05:50:27;20.60;;;12.25;;
69594;SDS011;56800;52.142;5.364;2023-02-18T05:52:53;23.55;;;14.43;;
69594;SDS011;56800;52.142;5.364;2023-02-18T05:55:20;27.60;;;15.32;;
69594;SDS011;56800;52.142;5.364;2023-02-18T05:57:47;27.35;;;15.43;;
69594;SDS011;56800;52.142;5.364;2023-02-18T06:00:13;28.57;;;17.23;;
69594;SDS011;56800;52.142;5.364;2023-02-18T06:02:40;28.30;;;17.15;;
69594;SDS011;56800;52.142;5.364;2023-02-18T06:05:07;26.88;;;16.85;;
69594;SDS011;56800;52.142;5.364;2023-02-18T06:07:35;28.05;;;16.20;;
69594;SDS011;56800;52.142;5.364;2023-02-18T06:10:03;28.83;;;14.10;;
69594;SDS011;56800;52.142;5.364;2023-02-18T06:12:31;22.30;;;14.40;;
69594;SDS011;56800;52.142;5.364;2023-02-18T06:14:57;23.00;;;14.80;;
69594;SDS011;56800;52.142;5.364;2023-02-18T06:17:24;25.90;;;16.70;;
69594;SDS011;56800;52.142;5.364;2023-02-18T06:19:50;25.83;;;15.50;;
69594;SDS011;56800;52.142;5.364;2023-02-18T06:22:17;23.23;;;16.67;;
69594;SDS011;56800;52.142;5.364;2023-02-18T06:24:44;26.27;;;16.87;;
69594;SDS011;56800;52.142;5.364;2023-02-18T06:27:10;24.70;;;14.98;;
69594;SDS011;56800;52.142;5.364;2023-02-18T06:29:37;30.52;;;15.82;;
69594;SDS011;56800;52.142;5.364;2023-02-18T06:32:04;25.10;;;15.88;;
69594;SDS011;56800;52.142;5.364;2023-02-18T06:34:31;23.50;;;15.30;;
69594;SDS011;56800;52.142;5.364;2023-02-18T06:36:57;27.90;;;16.83;;
69594;SDS011;56800;52.142;5.364;2023-02-18T06:39:26;27.60;;;15.75;;
69594;SDS011;56800;52.142;5.364;2023-02-18T06:41:55;31.23;;;16.67;;
69594;SDS011;56800;52.142;5.364;2023-02-18T06:44:21;30.50;;;15.07;;
69594;SDS011;56800;52.142;5.364;2023-02-18T06:46:48;26.92;;;14.27;;
69594;SDS011;56800;52.142;5.364;2023-02-18T06:49:14;18.07;;;11.07;;
69594;SDS011;56800;52.142;5.364;2023-02-18T06:51:41;24.67;;;14.15;;
69594;SDS011;56800;52.142;5.364;2023-02-18T06:54:08;24.52;;;12.90;;
69594;SDS011;56800;52.142;5.364;2023-02-18T06:56:34;28.38;;;13.02;;
69594;SDS011;56800;52.142;5.364;2023-02-18T06:59:01;24.20;;;12.40;;
69594;SDS011;56800;52.142;5.364;2023-02-18T07:01:28;19.77;;;11.93;;
69594;SDS011;56800;52.142;5.364;2023-02-18T07:03:54;22.83;;;12.60;;
69594;SDS011;56800;52.142;5.364;2023-02-18T07:06:21;27.08;;;13.80;;
69594;SDS011;56800;52.142;5.364;2023-02-18T07:08:48;30.20;;;14.18;;
69594;SDS011;56800;52.142;5.364;2023-02-18T07:11:15;30.55;;;14.75;;
69594;SDS011;56800;52.142;5.364;2023-02-18T07:13:42;31.17;;;14.20;;
69594;SDS011;56800;52.142;5.364;2023-02-18T07:16:08;37.67;;;16.42;;
69594;SDS011;56800;52.142;5.364;2023-02-18T07:18:36;30.13;;;14.18;;
69594;SDS011;56800;52.142;5.364;2023-02-18T07:21:02;35.03;;;13.77;;
69594;SDS011;56800;52.142;5.364;2023-02-18T07:23:29;28.42;;;13.23;;
69594;SDS011;56800;52.142;5.364;2023-02-18T07:26:03;26.53;;;12.53;;
69594;SDS011;56800;52.142;5.364;2023-02-18T07:28:32;26.00;;;11.80;;
69594;SDS011;56800;52.142;5.364;2023-02-18T07:30:58;34.28;;;13.40;;
69594;SDS011;56800;52.142;5.364;2023-02-18T07:33:25;28.20;;;12.80;;
69594;SDS011;56800;52.142;5.364;2023-02-18T07:36:01;31.30;;;11.88;;
69594;SDS011;56800;52.142;5.364;2023-02-18T07:38:29;30.07;;;11.47;;
69594;SDS011;56800;52.142;5.364;2023-02-18T07:40:56;25.38;;;10.30;;
69594;SDS011;56800;52.142;5.364;2023-02-18T07:43:24;23.20;;;9.05;;
69594;SDS011;56800;52.142;5.364;2023-02-18T07:45:50;27.30;;;9.82;;
69594;SDS011;56800;52.142;5.364;2023-02-18T07:48:17;23.17;;;9.02;;
69594;SDS011;56800;52.142;5.364;2023-02-18T07:50:44;28.47;;;10.57;;
69594;SDS011;56800;52.142;5.364;2023-02-18T07:53:12;26.17;;;9.15;;
69594;SDS011;56800;52.142;5.364;2023-02-18T07:55:41;33.83;;;10.25;;
69594;SDS011;56800;52.142;5.364;2023-02-18T07:58:24;23.20;;;8.32;;
69594;SDS011;56800;52.142;5.364;2023-02-18T08:00:53;24.52;;;8.25;;
69594;SDS011;56800;52.142;5.364;2023-02-18T08:03:21;22.73;;;7.73;;
69594;SDS011;56800;52.142;5.364;2023-02-18T08:05:53;28.50;;;8.35;;
69594;SDS011;56800;52.142;5.364;2023-02-18T08:08:21;29.65;;;6.60;;
69594;SDS011;56800;52.142;5.364;2023-02-18T08:10:50;26.38;;;7.45;;
69594;SDS011;56800;52.142;5.364;2023-02-18T08:13:17;20.10;;;5.53;;
69594;SDS011;56800;52.142;5.364;2023-02-18T08:15:44;23.50;;;5.20;;
69594;SDS011;56800;52.142;5.364;2023-02-18T08:18:16;23.35;;;5.20;;
69594;SDS011;56800;52.142;5.364;2023-02-18T08:20:45;25.45;;;5.40;;
69594;SDS011;56800;52.142;5.364;2023-02-18T08:23:13;26.95;;;4.75;;
69594;SDS011;56800;52.142;5.364;2023-02-18T08:25:48;23.02;;;4.65;;
69594;SDS011;56800;52.142;5.364;2023-02-18T08:28:19;25.97;;;5.40;;
69594;SDS011;56800;52.142;5.364;2023-02-18T08:30:49;30.98;;;5.68;;
69594;SDS011;56800;52.142;5.364;2023-02-18T08:33:17;21.58;;;3.55;;
69594;SDS011;56800;52.142;5.364;2023-02-18T08:35:44;27.58;;;4.60;;
69594;SDS011;56800;52.142;5.364;2023-02-18T08:38:12;22.33;;;3.70;;
69594;SDS011;56800;52.142;5.364;2023-02-18T08:40:39;19.30;;;3.20;;
69594;SDS011;56800;52.142;5.364;2023-02-18T08:43:07;31.30;;;4.10;;
69594;SDS011;56800;52.142;5.364;2023-02-18T08:45:35;19.77;;;3.47;;
69594;SDS011;56800;52.142;5.364;2023-02-18T08:48:03;26.23;;;3.83;;
69594;SDS011;56800;52.142;5.364;2023-02-18T08:50:45;24.25;;;3.33;;
69594;SDS011;56800;52.142;5.364;2023-02-18T08:53:12;19.07;;;2.83;;
69594;SDS011;56800;52.142;5.364;2023-02-18T08:55:39;30.30;;;3.33;;
69594;SDS011;56800;52.142;5.364;2023-02-18T08:58:06;18.98;;;2.83;;
69594;SDS011;56800;52.142;5.364;2023-02-18T09:00:33;19.80;;;2.78;;
69594;SDS011;56800;52.142;5.364;2023-02-18T09:03:01;21.30;;;3.47;;
69594;SDS011;56800;52.142;5.364;2023-02-18T09:05:27;21.83;;;3.30;;
69594;SDS011;56800;52.142;5.364;2023-02-18T09:07:54;21.05;;;3.20;;
69594;SDS011;56800;52.142;5.364;2023-02-18T09:10:21;21.38;;;3.40;;
69594;SDS011;56800;52.142;5.364;2023-02-18T09:12:48;20.00;;;3.13;;
69594;SDS011;56800;52.142;5.364;2023-02-18T09:15:15;23.58;;;3.55;;
69594;SDS011;56800;52.142;5.364;2023-02-18T09:17:42;21.63;;;2.90;;
69594;SDS011;56800;52.142;5.364;2023-02-18T09:20:09;19.65;;;3.13;;
69594;SDS011;56800;52.142;5.364;2023-02-18T09:22:36;22.15;;;3.70;;
69594;SDS011;56800;52.142;5.364;2023-02-18T09:25:02;19.58;;;2.80;;
69594;SDS011;56800;52.142;5.364;2023-02-18T09:27:29;21.85;;;3.28;;
69594;SDS011;56800;52.142;5.364;2023-02-18T09:29:56;15.73;;;2.83;;
69594;SDS011;56800;52.142;5.364;2023-02-18T09:32:22;18.92;;;2.70;;
69594;SDS011;56800;52.142;5.364;2023-02-18T09:35:00;18.40;;;2.67;;
69594;SDS011;56800;52.142;5.364;2023-02-18T09:37:27;20.83;;;3.53;;
69594;SDS011;56800;52.142;5.364;2023-02-18T09:39:54;19.73;;;2.85;;
69594;SDS011;56800;52.142;5.364;2023-02-18T09:42:22;18.70;;;3.10;;
69594;SDS011;56800;52.142;5.364;2023-02-18T09:44:57;17.35;;;3.40;;
69594;SDS011;56800;52.142;5.364;2023-02-18T09:47:31;20.65;;;2.85;;
69594;SDS011;56800;52.142;5.364;2023-02-18T09:50:04;19.85;;;2.88;;
69594;SDS011;56800;52.142;5.364;2023-02-18T09:52:43;19.85;;;3.30;;
69594;SDS011;56800;52.142;5.364;2023-02-18T09:55:17;15.10;;;2.53;;
69594;SDS011;56800;52.142;5.364;2023-02-18T09:57:45;16.83;;;3.72;;
69594;SDS011;56800;52.142;5.364;2023-02-18T10:02:58;21.02;;;3.40;;
69594;SDS011;56800;52.142;5.364;2023-02-18T10:05:29;20.75;;;2.78;;
69594;SDS011;56800;52.142;5.364;2023-02-18T10:08:02;18.60;;;3.37;;
69594;SDS011;56800;52.142;5.364;2023-02-18T10:10:41;21.13;;;2.70;;
69594;SDS011;56800;52.142;5.364;2023-02-18T10:13:10;18.85;;;2.72;;
69594;SDS011;56800;52.142;5.364;2023-02-18T10:15:39;21.70;;;3.08;;
69594;SDS011;56800;52.142;5.364;2023-02-18T10:18:18;19.60;;;3.15;;
69594;SDS011;56800;52.142;5.364;2023-02-18T10:20:50;19.97;;;2.90;;
69594;SDS011;56800;52.142;5.364;2023-02-18T10:23:18;16.35;;;3.42;;
69594;SDS011;56800;52.142;5.364;2023-02-18T10:25:46;17.05;;;2.90;;
69594;SDS011;56800;52.142;5.364;2023-02-18T10:28:15;22.80;;;3.55;;
69594;SDS011;56800;52.142;5.364;2023-02-18T10:30:50;19.38;;;3.03;;
69594;SDS011;56800;52.142;5.364;2023-02-18T10:33:30;23.30;;;3.37;;
69594;SDS011;56800;52.142;5.364;2023-02-18T10:36:23;21.65;;;3.15;;
69594;SDS011;56800;52.142;5.364;2023-02-18T10:42:04;22.23;;;3.50;;
69594;SDS011;56800;52.142;5.364;2023-02-18T10:44:50;24.30;;;3.20;;
69594;SDS011;56800;52.142;5.364;2023-02-18T10:47:45;17.67;;;3.00;;
69594;SDS011;56800;52.142;5.364;2023-02-18T10:50:43;19.55;;;3.63;;
69594;SDS011;56800;52.142;5.364;2023-02-18T10:53:12;13.02;;;3.05;;
69594;SDS011;56800;52.142;5.364;2023-02-18T10:55:47;18.35;;;2.95;;
69594;SDS011;56800;52.142;5.364;2023-02-18T10:58:23;20.58;;;3.50;;
69594;SDS011;56800;52.142;5.364;2023-02-18T11:00:57;19.13;;;4.13;;
69594;SDS011;56800;52.142;5.364;2023-02-18T11:03:37;20.85;;;3.25;;
69594;SDS011;56800;52.142;5.364;2023-02-18T11:06:18;20.02;;;3.72;;
69594;SDS011;56800;52.142;5.364;2023-02-18T11:08:46;24.35;;;2.78;;
69594;SDS011;56800;52.142;5.364;2023-02-18T11:11:36;20.67;;;3.22;;
69594;SDS011;56800;52.142;5.364;2023-02-18T11:14:05;21.67;;;3.13;;
69594;SDS011;56800;52.142;5.364;2023-02-18T11:16:39;23.80;;;3.65;;
69594;SDS011;56800;52.142;5.364;2023-02-18T11:19:29;18.48;;;3.30;;
69594;SDS011;56800;52.142;5.364;2023-02-18T11:24:47;15.05;;;3.30;;
69594;SDS011;56800;52.142;5.364;2023-02-18T11:27:29;18.63;;;3.80;;
69594;SDS011;56800;52.142;5.364;2023-02-18T11:30:13;19.52;;;2.92;;
69594;SDS011;56800;52.142;5.364;2023-02-18T11:32:51;19.77;;;2.92;;
69594;SDS011;56800;52.142;5.364;2023-02-18T11:35:22;17.50;;;2.70;;
69594;SDS011;56800;52.142;5.364;2023-02-18T11:37:52;16.77;;;2.90;;
69594;SDS011;56800;52.142;5.364;2023-02-18T11:40:23;16.13;;;3.33;;
69594;SDS011;56800;52.142;5.364;2023-02-18T11:45:37;17.20;;;2.78;;
69594;SDS011;56800;52.142;5.364;2023-02-18T11:48:17;16.77;;;3.33;;
69594;SDS011;56800;52.142;5.364;2023-02-18T11:50:49;22.05;;;2.67;;
69594;SDS011;56800;52.142;5.364;2023-02-18T11:55:56;15.65;;;3.17;;
69594;SDS011;56800;52.142;5.364;2023-02-18T11:58:25;15.43;;;3.15;;
69594;SDS011;56800;52.142;5.364;2023-02-18T12:00:55;18.75;;;3.42;;
69594;SDS011;56800;52.142;5.364;2023-02-18T12:06:28;18.47;;;2.80;;
69594;SDS011;56800;52.142;5.364;2023-02-18T12:09:00;15.27;;;2.72;;
69594;SDS011;56800;52.142;5.364;2023-02-18T12:11:41;20.05;;;3.60;;
69594;SDS011;56800;52.142;5.364;2023-02-18T12:14:16;17.70;;;2.72;;
69594;SDS011;56800;52.142;5.364;2023-02-18T12:16:47;15.52;;;2.80;;
69594;SDS011;56800;52.142;5.364;2023-02-18T12:20:37;20.13;;;2.90;;
69594;SDS011;56800;52.142;5.364;2023-02-18T12:28:03;17.75;;;2.88;;
69594;SDS011;56800;52.142;5.364;2023-02-18T12:31:03;15.35;;;2.70;;
69594;SDS011;56800;52.142;5.364;2023-02-18T12:34:05;13.93;;;3.33;;
69594;SDS011;56800;52.142;5.364;2023-02-18T12:42:17;12.63;;;2.63;;
69594;SDS011;56800;52.142;5.364;2023-02-18T12:56:06;10.77;;;2.00;;
69594;SDS011;56800;52.142;5.364;2023-02-18T13:10:23;8.85;;;2.30;;
69594;SDS011;56800;52.142;5.364;2023-02-18T13:13:20;15.25;;;2.85;;
69594;SDS011;56800;52.142;5.364;2023-02-18T13:15:54;11.97;;;2.70;;
69594;SDS011;56800;52.142;5.364;2023-02-18T13:18:33;14.38;;;2.60;;
69594;SDS011;56800;52.142;5.364;2023-02-18T13:21:19;10.40;;;2.15;;
69594;SDS011;56800;52.142;5.364;2023-02-18T13:23:49;17.92;;;3.10;;
69594;SDS011;56800;52.142;5.364;2023-02-18T13:26:20;14.32;;;2.90;;
69594;SDS011;56800;52.142;5.364;2023-02-18T13:35:05;11.25;;;2.55;;
69594;SDS011;56800;52.142;5.364;2023-02-18T13:37:54;7.35;;;1.70;;
69594;SDS011;56800;52.142;5.364;2023-02-18T13:40:41;14.20;;;2.83;;
69594;SDS011;56800;52.142;5.364;2023-02-18T13:49:16;8.15;;;2.28;;
69594;SDS011;56800;52.142;5.364;2023-02-18T13:51:27;7.00;;;2.20;;
69594;SDS011;56800;52.142;5.364;2023-02-18T13:54:22;9.88;;;2.47;;
69594;SDS011;56800;52.142;5.364;2023-02-18T13:57:21;11.83;;;2.30;;
69594;SDS011;56800;52.142;5.364;2023-02-18T13:59:58;9.32;;;2.40;;
69594;SDS011;56800;52.142;5.364;2023-02-18T14:02:30;9.57;;;2.35;;
69594;SDS011;56800;52.142;5.364;2023-02-18T14:07:52;12.25;;;2.30;;
69594;SDS011;56800;52.142;5.364;2023-02-18T14:10:36;8.70;;;1.80;;
69594;SDS011;56800;52.142;5.364;2023-02-18T14:13:20;9.75;;;2.33;;
69594;SDS011;56800;52.142;5.364;2023-02-18T14:15:51;10.20;;;2.42;;
69594;SDS011;56800;52.142;5.364;2023-02-18T14:18:25;9.70;;;2.53;;
69594;SDS011;56800;52.142;5.364;2023-02-18T14:26:28;10.35;;;2.13;;
69594;SDS011;56800;52.142;5.364;2023-02-18T14:29:12;10.55;;;2.40;;
69594;SDS011;56800;52.142;5.364;2023-02-18T14:31:59;8.85;;;2.25;;
69594;SDS011;56800;52.142;5.364;2023-02-18T14:38:00;7.97;;;2.20;;
69594;SDS011;56800;52.142;5.364;2023-02-18T14:46:50;10.05;;;2.20;;
69594;SDS011;56800;52.142;5.364;2023-02-18T14:49:43;6.63;;;2.20;;
69594;SDS011;56800;52.142;5.364;2023-02-18T14:52:35;8.37;;;2.03;;
69594;SDS011;56800;52.142;5.364;2023-02-18T14:55:20;12.15;;;2.67;;
69594;SDS011;56800;52.142;5.364;2023-02-18T14:57:54;12.48;;;3.00;;
69594;SDS011;56800;52.142;5.364;2023-02-18T15:00:27;7.90;;;2.10;;
69594;SDS011;56800;52.142;5.364;2023-02-18T15:02:57;13.32;;;2.60;;
69594;SDS011;56800;52.142;5.364;2023-02-18T15:05:28;10.13;;;2.90;;
69594;SDS011;56800;52.142;5.364;2023-02-18T15:08:00;7.90;;;2.67;;
69594;SDS011;56800;52.142;5.364;2023-02-18T15:10:37;13.02;;;2.30;;
69594;SDS011;56800;52.142;5.364;2023-02-18T15:15:57;10.23;;;2.20;;
69594;SDS011;56800;52.142;5.364;2023-02-18T15:18:33;12.37;;;3.03;;
69594;SDS011;56800;52.142;5.364;2023-02-18T15:23:59;6.47;;;1.98;;
69594;SDS011;56800;52.142;5.364;2023-02-18T15:26:35;12.35;;;2.40;;
69594;SDS011;56800;52.142;5.364;2023-02-18T15:29:14;11.32;;;2.35;;
69594;SDS011;56800;52.142;5.364;2023-02-18T15:31:45;5.63;;;2.20;;
69594;SDS011;56800;52.142;5.364;2023-02-18T15:34:34;12.18;;;2.50;;
69594;SDS011;56800;52.142;5.364;2023-02-18T15:37:02;10.05;;;2.42;;
69594;SDS011;56800;52.142;5.364;2023-02-18T15:39:31;10.15;;;2.45;;
69594;SDS011;56800;52.142;5.364;2023-02-18T15:42:00;8.18;;;2.13;;
69594;SDS011;56800;52.142;5.364;2023-02-18T15:44:31;13.07;;;2.10;;
69594;SDS011;56800;52.142;5.364;2023-02-18T15:47:01;8.07;;;2.40;;
69594;SDS011;56800;52.142;5.364;2023-02-18T15:49:35;8.90;;;2.22;;
69594;SDS011;56800;52.142;5.364;2023-02-18T15:52:03;9.30;;;2.40;;
69594;SDS011;56800;52.142;5.364;2023-02-18T15:54:32;13.77;;;3.33;;
69594;SDS011;56800;52.142;5.364;2023-02-18T15:57:01;13.03;;;3.00;;
69594;SDS011;56800;52.142;5.364;2023-02-18T15:59:33;13.60;;;2.55;;
69594;SDS011;56800;52.142;5.364;2023-02-18T16:02:07;13.10;;;3.17;;
69594;SDS011;56800;52.142;5.364;2023-02-18T16:04:44;13.90;;;2.65;;
69594;SDS011;56800;52.142;5.364;2023-02-18T16:07:18;17.80;;;2.90;;
69594;SDS011;56800;52.142;5.364;2023-02-18T16:10:08;13.57;;;2.80;;
69594;SDS011;56800;52.142;5.364;2023-02-18T16:12:51;16.13;;;2.90;;
69594;SDS011;56800;52.142;5.364;2023-02-18T16:15:29;16.42;;;3.13;;
69594;SDS011;56800;52.142;5.364;2023-02-18T16:18:02;20.67;;;3.38;;
69594;SDS011;56800;52.142;5.364;2023-02-18T16:20:30;13.68;;;3.10;;
69594;SDS011;56800;52.142;5.364;2023-02-18T16:22:59;21.57;;;3.30;;
69594;SDS011;56800;52.142;5.364;2023-02-18T16:28:04;18.75;;;3.58;;
69594;SDS011;56800;52.142;5.364;2023-02-18T16:30:47;19.58;;;3.50;;
69594;SDS011;56800;52.142;5.364;2023-02-18T16:33:14;16.80;;;3.63;;
69594;SDS011;56800;52.142;5.364;2023-02-18T16:35:41;16.43;;;3.77;;
69594;SDS011;56800;52.142;5.364;2023-02-18T16:38:16;18.02;;;3.38;;
69594;SDS011;56800;52.142;5.364;2023-02-18T16:40:47;17.40;;;3.42;;
69594;SDS011;56800;52.142;5.364;2023-02-18T16:43:18;15.43;;;2.97;;
69594;SDS011;56800;52.142;5.364;2023-02-18T16:45:47;17.10;;;3.92;;
69594;SDS011;56800;52.142;5.364;2023-02-18T16:48:32;18.23;;;3.80;;
69594;SDS011;56800;52.142;5.364;2023-02-18T16:51:03;15.30;;;3.10;;
69594;SDS011;56800;52.142;5.364;2023-02-18T16:53:32;14.02;;;3.50;;
69594;SDS011;56800;52.142;5.364;2023-02-18T16:55:58;18.02;;;3.30;;
69594;SDS011;56800;52.142;5.364;2023-02-18T16:58:26;20.13;;;3.65;;